sensor_id;sensor_type;location;lat;lon;timestamp;temperature;humidity
18287;DHT22;9269;50.838;12.094;2023-09-07T00:01:49;22.10;34.00
18287;DHT22;9269;50.838;12.094;2023-09-07T00:04:22;22.20;33.90
18287;DHT22;9269;50.838;12.094;2023-09-07T00:06:51;22.10;33.90
18287;DHT22;9269;50.838;12.094;2023-09-07T00:09:19;22.00;33.90
18287;DHT22;9269;50.838;12.094;2023-09-07T00:11:49;22.00;33.70
18287;DHT22;9269;50.838;12.094;2023-09-07T00:14:18;22.00;33.30
18287;DHT22;9269;50.838;12.094;2023-09-07T00:16:46;21.90;33.60
18287;DHT22;9269;50.838;12.094;2023-09-07T00:19:15;21.90;33.50
18287;DHT22;9269;50.838;12.094;2023-09-07T00:21:45;21.90;33.50
18287;DHT22;9269;50.838;12.094;2023-09-07T00:24:13;21.80;34.00
18287;DHT22;9269;50.838;12.094;2023-09-07T00:26:44;21.80;33.60
18287;DHT22;9269;50.838;12.094;2023-09-07T00:29:26;21.80;33.80
18287;DHT22;9269;50.838;12.094;2023-09-07T00:32:00;21.70;33.80
18287;DHT22;9269;50.838;12.094;2023-09-07T00:34:28;21.70;33.90
18287;DHT22;9269;50.838;12.094;2023-09-07T00:37:00;21.60;34.20
18287;DHT22;9269;50.838;12.094;2023-09-07T00:39:29;21.70;34.00
18287;DHT22;9269;50.838;12.094;2023-09-07T00:41:57;21.60;33.60
18287;DHT22;9269;50.838;12.094;2023-09-07T00:44:26;21.60;34.00
18287;DHT22;9269;50.838;12.094;2023-09-07T00:46:54;21.60;34.40
18287;DHT22;9269;50.838;12.094;2023-09-07T00:49:24;21.60;34.50
18287;DHT22;9269;50.838;12.094;2023-09-07T00:51:53;21.50;34.30
18287;DHT22;9269;50.838;12.094;2023-09-07T00:54:23;21.50;34.10
18287;DHT22;9269;50.838;12.094;2023-09-07T00:56:52;21.40;34.60
18287;DHT22;9269;50.838;12.094;2023-09-07T00:59:20;21.40;34.70
18287;DHT22;9269;50.838;12.094;2023-09-07T01:01:56;21.40;34.30
18287;DHT22;9269;50.838;12.094;2023-09-07T01:04:24;21.40;34.70
18287;DHT22;9269;50.838;12.094;2023-09-07T01:06:56;21.30;34.00
18287;DHT22;9269;50.838;12.094;2023-09-07T01:09:30;21.30;34.50
18287;DHT22;9269;50.838;12.094;2023-09-07T01:12:00;21.30;34.80
18287;DHT22;9269;50.838;12.094;2023-09-07T01:14:29;21.30;34.70
18287;DHT22;9269;50.838;12.094;2023-09-07T01:16:57;21.30;34.90
18287;DHT22;9269;50.838;12.094;2023-09-07T01:19:26;21.20;34.80
18287;DHT22;9269;50.838;12.094;2023-09-07T01:21:56;21.20;34.70
18287;DHT22;9269;50.838;12.094;2023-09-07T01:24:28;21.20;34.90
18287;DHT22;9269;50.838;12.094;2023-09-07T01:27:05;21.20;35.50
18287;DHT22;9269;50.838;12.094;2023-09-07T01:29:34;21.10;35.70
18287;DHT22;9269;50.838;12.094;2023-09-07T01:32:05;21.20;35.60
18287;DHT22;9269;50.838;12.094;2023-09-07T01:34:36;21.10;35.30
18287;DHT22;9269;50.838;12.094;2023-09-07T01:37:09;21.10;35.20
18287;DHT22;9269;50.838;12.094;2023-09-07T01:39:37;21.00;35.10
18287;DHT22;9269;50.838;12.094;2023-09-07T01:42:13;21.10;34.80
18287;DHT22;9269;50.838;12.094;2023-09-07T01:44:42;21.00;35.30
18287;DHT22;9269;50.838;12.094;2023-09-07T01:47:10;21.10;35.50
18287;DHT22;9269;50.838;12.094;2023-09-07T01:49:39;21.00;36.00
18287;DHT22;9269;50.838;12.094;2023-09-07T01:52:09;20.90;35.90
18287;DHT22;9269;50.838;12.094;2023-09-07T01:54:38;20.90;36.00
18287;DHT22;9269;50.838;12.094;2023-09-07T01:57:06;20.90;35.60
18287;DHT22;9269;50.838;12.094;2023-09-07T01:59:35;20.90;36.80
18287;DHT22;9269;50.838;12.094;2023-09-07T02:02:03;20.80;36.90
18287;DHT22;9269;50.838;12.094;2023-09-07T02:04:32;20.80;36.80
18287;DHT22;9269;50.838;12.094;2023-09-07T02:07:02;20.80;36.90
18287;DHT22;9269;50.838;12.094;2023-09-07T02:09:32;20.80;36.70
18287;DHT22;9269;50.838;12.094;2023-09-07T02:12:01;20.80;37.30
18287;DHT22;9269;50.838;12.094;2023-09-07T02:14:31;20.70;37.20
18287;DHT22;9269;50.838;12.094;2023-09-07T02:17:00;20.70;37.60
18287;DHT22;9269;50.838;12.094;2023-09-07T02:19:48;20.70;37.80
18287;DHT22;9269;50.838;12.094;2023-09-07T02:22:17;20.60;37.80
18287;DHT22;9269;50.838;12.094;2023-09-07T02:24:47;20.60;37.60
18287;DHT22;9269;50.838;12.094;2023-09-07T02:27:15;20.60;37.70
18287;DHT22;9269;50.838;12.094;2023-09-07T02:29:44;20.60;37.40
18287;DHT22;9269;50.838;12.094;2023-09-07T02:32:12;20.50;37.10
18287;DHT22;9269;50.838;12.094;2023-09-07T02:34:41;20.50;37.10
18287;DHT22;9269;50.838;12.094;2023-09-07T02:37:10;20.50;37.40
18287;DHT22;9269;50.838;12.094;2023-09-07T02:39:38;20.50;37.50
18287;DHT22;9269;50.838;12.094;2023-09-07T02:42:08;20.40;37.60
18287;DHT22;9269;50.838;12.094;2023-09-07T02:44:37;20.40;37.70
18287;DHT22;9269;50.838;12.094;2023-09-07T02:47:06;20.40;37.70
18287;DHT22;9269;50.838;12.094;2023-09-07T02:53:21;20.40;37.40
18287;DHT22;9269;50.838;12.094;2023-09-07T02:55:50;20.30;37.30
18287;DHT22;9269;50.838;12.094;2023-09-07T02:58:20;20.40;37.60
18287;DHT22;9269;50.838;12.094;2023-09-07T03:00:48;20.30;38.00
18287;DHT22;9269;50.838;12.094;2023-09-07T03:03:17;20.30;38.40
18287;DHT22;9269;50.838;12.094;2023-09-07T03:05:46;20.20;38.90
18287;DHT22;9269;50.838;12.094;2023-09-07T03:08:14;20.20;39.80
18287;DHT22;9269;50.838;12.094;2023-09-07T03:10:43;20.30;39.90
18287;DHT22;9269;50.838;12.094;2023-09-07T03:13:11;20.20;39.90
18287;DHT22;9269;50.838;12.094;2023-09-07T03:15:41;20.20;40.20
18287;DHT22;9269;50.838;12.094;2023-09-07T03:18:10;20.20;40.50
18287;DHT22;9269;50.838;12.094;2023-09-07T03:20:38;20.20;40.30
18287;DHT22;9269;50.838;12.094;2023-09-07T03:23:07;20.10;40.10
18287;DHT22;9269;50.838;12.094;2023-09-07T03:25:36;20.20;40.10
18287;DHT22;9269;50.838;12.094;2023-09-07T03:28:05;20.10;40.30
18287;DHT22;9269;50.838;12.094;2023-09-07T03:30:33;20.20;40.80
18287;DHT22;9269;50.838;12.094;2023-09-07T03:33:04;20.20;40.50
18287;DHT22;9269;50.838;12.094;2023-09-07T03:35:33;20.10;40.50
18287;DHT22;9269;50.838;12.094;2023-09-07T03:38:02;20.10;40.60
18287;DHT22;9269;50.838;12.094;2023-09-07T03:40:31;20.20;40.60
18287;DHT22;9269;50.838;12.094;2023-09-07T03:43:00;20.10;40.60
18287;DHT22;9269;50.838;12.094;2023-09-07T03:45:28;20.00;40.50
18287;DHT22;9269;50.838;12.094;2023-09-07T03:47:58;20.00;40.50
18287;DHT22;9269;50.838;12.094;2023-09-07T03:50:28;19.90;40.40
18287;DHT22;9269;50.838;12.094;2023-09-07T03:52:56;20.00;40.70
18287;DHT22;9269;50.838;12.094;2023-09-07T03:55:26;19.90;40.50
18287;DHT22;9269;50.838;12.094;2023-09-07T03:57:54;19.90;40.10
18287;DHT22;9269;50.838;12.094;2023-09-07T04:00:23;19.90;40.00
18287;DHT22;9269;50.838;12.094;2023-09-07T04:02:51;19.90;40.60
18287;DHT22;9269;50.838;12.094;2023-09-07T04:05:21;19.80;40.10
18287;DHT22;9269;50.838;12.094;2023-09-07T04:07:52;19.90;40.30
18287;DHT22;9269;50.838;12.094;2023-09-07T04:10:20;19.80;40.10
18287;DHT22;9269;50.838;12.094;2023-09-07T04:12:49;19.80;39.60
18287;DHT22;9269;50.838;12.094;2023-09-07T04:15:18;19.80;39.10
18287;DHT22;9269;50.838;12.094;2023-09-07T04:17:47;19.70;39.10
18287;DHT22;9269;50.838;12.094;2023-09-07T04:20:15;19.60;38.90
18287;DHT22;9269;50.838;12.094;2023-09-07T04:22:44;19.60;39.00
18287;DHT22;9269;50.838;12.094;2023-09-07T04:25:14;19.60;38.90
18287;DHT22;9269;50.838;12.094;2023-09-07T04:27:43;19.60;38.80
18287;DHT22;9269;50.838;12.094;2023-09-07T04:30:11;19.60;38.80
18287;DHT22;9269;50.838;12.094;2023-09-07T04:32:40;19.50;38.70
18287;DHT22;9269;50.838;12.094;2023-09-07T04:35:09;19.40;38.50
18287;DHT22;9269;50.838;12.094;2023-09-07T04:37:38;19.50;38.50
18287;DHT22;9269;50.838;12.094;2023-09-07T04:40:07;19.50;38.90
18287;DHT22;9269;50.838;12.094;2023-09-07T04:42:37;19.50;38.80
18287;DHT22;9269;50.838;12.094;2023-09-07T04:45:07;19.60;38.80
18287;DHT22;9269;50.838;12.094;2023-09-07T04:47:35;19.50;39.00
18287;DHT22;9269;50.838;12.094;2023-09-07T04:50:06;19.40;39.10
18287;DHT22;9269;50.838;12.094;2023-09-07T04:52:35;19.50;39.60
18287;DHT22;9269;50.838;12.094;2023-09-07T04:55:03;19.40;40.20
18287;DHT22;9269;50.838;12.094;2023-09-07T04:57:32;19.50;40.20
18287;DHT22;9269;50.838;12.094;2023-09-07T05:00:03;19.40;40.00
18287;DHT22;9269;50.838;12.094;2023-09-07T05:02:32;19.40;39.80
18287;DHT22;9269;50.838;12.094;2023-09-07T05:05:06;19.40;39.70
18287;DHT22;9269;50.838;12.094;2023-09-07T05:07:35;19.40;40.50
18287;DHT22;9269;50.838;12.094;2023-09-07T05:10:04;19.40;40.20
18287;DHT22;9269;50.838;12.094;2023-09-07T05:12:34;19.50;40.20
18287;DHT22;9269;50.838;12.094;2023-09-07T05:15:05;19.50;40.30
18287;DHT22;9269;50.838;12.094;2023-09-07T05:17:35;19.50;40.40
18287;DHT22;9269;50.838;12.094;2023-09-07T05:20:07;19.50;40.90
18287;DHT22;9269;50.838;12.094;2023-09-07T05:22:39;19.50;40.10
18287;DHT22;9269;50.838;12.094;2023-09-07T05:25:08;19.60;39.90
18287;DHT22;9269;50.838;12.094;2023-09-07T05:27:39;19.60;40.20
18287;DHT22;9269;50.838;12.094;2023-09-07T05:30:10;19.50;40.20
18287;DHT22;9269;50.838;12.094;2023-09-07T05:32:39;19.60;40.40
18287;DHT22;9269;50.838;12.094;2023-09-07T05:35:08;19.70;40.80
18287;DHT22;9269;50.838;12.094;2023-09-07T05:37:39;19.70;40.20
18287;DHT22;9269;50.838;12.094;2023-09-07T05:40:08;19.70;39.80
18287;DHT22;9269;50.838;12.094;2023-09-07T05:42:38;19.70;40.00
18287;DHT22;9269;50.838;12.094;2023-09-07T05:45:10;19.80;39.60
18287;DHT22;9269;50.838;12.094;2023-09-07T05:47:38;19.80;39.50
18287;DHT22;9269;50.838;12.094;2023-09-07T05:50:08;19.90;39.10
18287;DHT22;9269;50.838;12.094;2023-09-07T05:52:36;20.00;39.60
18287;DHT22;9269;50.838;12.094;2023-09-07T05:55:06;20.00;39.40
18287;DHT22;9269;50.838;12.094;2023-09-07T05:57:35;20.00;39.10
18287;DHT22;9269;50.838;12.094;2023-09-07T06:00:06;20.10;39.20
18287;DHT22;9269;50.838;12.094;2023-09-07T06:02:38;20.20;39.10
18287;DHT22;9269;50.838;12.094;2023-09-07T06:05:08;20.20;39.30
18287;DHT22;9269;50.838;12.094;2023-09-07T06:07:37;20.40;39.10
18287;DHT22;9269;50.838;12.094;2023-09-07T06:10:07;20.40;39.00
18287;DHT22;9269;50.838;12.094;2023-09-07T06:12:36;20.50;38.80
18287;DHT22;9269;50.838;12.094;2023-09-07T06:15:08;20.50;38.50
18287;DHT22;9269;50.838;12.094;2023-09-07T06:17:40;20.60;38.70
18287;DHT22;9269;50.838;12.094;2023-09-07T06:20:11;20.80;39.00
18287;DHT22;9269;50.838;12.094;2023-09-07T06:22:40;20.90;39.10
18287;DHT22;9269;50.838;12.094;2023-09-07T06:25:08;20.90;37.40
18287;DHT22;9269;50.838;12.094;2023-09-07T06:27:37;21.00;37.30
18287;DHT22;9269;50.838;12.094;2023-09-07T06:30:07;21.10;37.00
18287;DHT22;9269;50.838;12.094;2023-09-07T06:32:36;21.20;37.00
18287;DHT22;9269;50.838;12.094;2023-09-07T06:35:08;21.20;36.40
18287;DHT22;9269;50.838;12.094;2023-09-07T06:37:37;21.30;36.50
18287;DHT22;9269;50.838;12.094;2023-09-07T06:40:09;21.50;36.50
18287;DHT22;9269;50.838;12.094;2023-09-07T06:42:38;21.50;36.40
18287;DHT22;9269;50.838;12.094;2023-09-07T06:45:08;21.60;36.30
18287;DHT22;9269;50.838;12.094;2023-09-07T06:47:37;21.70;36.40
18287;DHT22;9269;50.838;12.094;2023-09-07T06:50:10;21.80;36.10
18287;DHT22;9269;50.838;12.094;2023-09-07T06:52:39;22.00;36.20
18287;DHT22;9269;50.838;12.094;2023-09-07T06:55:08;22.00;36.20
18287;DHT22;9269;50.838;12.094;2023-09-07T06:57:37;22.10;35.70
18287;DHT22;9269;50.838;12.094;2023-09-07T07:00:08;22.30;35.90
18287;DHT22;9269;50.838;12.094;2023-09-07T07:02:37;22.40;35.80
18287;DHT22;9269;50.838;12.094;2023-09-07T07:05:09;22.50;35.50
18287;DHT22;9269;50.838;12.094;2023-09-07T07:07:38;22.50;35.50
18287;DHT22;9269;50.838;12.094;2023-09-07T07:10:07;22.60;35.40
18287;DHT22;9269;50.838;12.094;2023-09-07T07:12:41;22.80;35.40
18287;DHT22;9269;50.838;12.094;2023-09-07T07:15:10;22.90;35.80
18287;DHT22;9269;50.838;12.094;2023-09-07T07:17:39;23.00;35.60
18287;DHT22;9269;50.838;12.094;2023-09-07T07:20:10;23.20;35.40
18287;DHT22;9269;50.838;12.094;2023-09-07T07:22:39;23.40;35.40
18287;DHT22;9269;50.838;12.094;2023-09-07T07:25:08;23.50;35.60
18287;DHT22;9269;50.838;12.094;2023-09-07T07:27:37;23.60;35.40
18287;DHT22;9269;50.838;12.094;2023-09-07T07:30:09;23.70;34.70
18287;DHT22;9269;50.838;12.094;2023-09-07T07:32:37;23.80;34.50
18287;DHT22;9269;50.838;12.094;2023-09-07T07:35:08;24.00;34.30
18287;DHT22;9269;50.838;12.094;2023-09-07T07:37:38;24.00;34.20
18287;DHT22;9269;50.838;12.094;2023-09-07T07:40:08;24.10;33.80
18287;DHT22;9269;50.838;12.094;2023-09-07T07:42:36;24.20;34.10
18287;DHT22;9269;50.838;12.094;2023-09-07T07:45:06;24.20;33.90
18287;DHT22;9269;50.838;12.094;2023-09-07T07:47:37;24.40;33.60
18287;DHT22;9269;50.838;12.094;2023-09-07T07:50:15;24.30;33.60
18287;DHT22;9269;50.838;12.094;2023-09-07T07:52:44;24.50;33.70
18287;DHT22;9269;50.838;12.094;2023-09-07T07:55:13;24.60;34.00
18287;DHT22;9269;50.838;12.094;2023-09-07T07:57:42;24.70;33.60
18287;DHT22;9269;50.838;12.094;2023-09-07T08:00:12;24.90;33.70
18287;DHT22;9269;50.838;12.094;2023-09-07T08:02:41;24.80;33.60
18287;DHT22;9269;50.838;12.094;2023-09-07T08:05:11;24.90;33.20
18287;DHT22;9269;50.838;12.094;2023-09-07T08:07:41;24.90;33.50
18287;DHT22;9269;50.838;12.094;2023-09-07T08:10:10;25.10;33.40
18287;DHT22;9269;50.838;12.094;2023-09-07T08:12:38;25.20;32.90
18287;DHT22;9269;50.838;12.094;2023-09-07T08:15:07;25.30;32.80
18287;DHT22;9269;50.838;12.094;2023-09-07T08:17:36;25.50;32.50
18287;DHT22;9269;50.838;12.094;2023-09-07T08:20:06;25.40;32.80
18287;DHT22;9269;50.838;12.094;2023-09-07T08:22:38;25.70;32.80
18287;DHT22;9269;50.838;12.094;2023-09-07T08:25:12;25.70;32.70
18287;DHT22;9269;50.838;12.094;2023-09-07T08:27:42;25.90;32.70
18287;DHT22;9269;50.838;12.094;2023-09-07T08:30:15;25.90;32.10
18287;DHT22;9269;50.838;12.094;2023-09-07T08:32:45;26.10;32.30
18287;DHT22;9269;50.838;12.094;2023-09-07T08:35:14;26.20;32.20
18287;DHT22;9269;50.838;12.094;2023-09-07T08:37:44;26.30;32.30
18287;DHT22;9269;50.838;12.094;2023-09-07T08:40:14;26.40;31.10
18287;DHT22;9269;50.838;12.094;2023-09-07T08:42:44;26.50;31.10
18287;DHT22;9269;50.838;12.094;2023-09-07T08:45:14;26.70;30.90
18287;DHT22;9269;50.838;12.094;2023-09-07T08:47:49;26.70;30.80
18287;DHT22;9269;50.838;12.094;2023-09-07T08:50:19;26.90;31.20
18287;DHT22;9269;50.838;12.094;2023-09-07T08:52:52;27.20;30.80
18287;DHT22;9269;50.838;12.094;2023-09-07T08:55:22;27.40;30.60
18287;DHT22;9269;50.838;12.094;2023-09-07T08:57:52;27.40;30.80
18287;DHT22;9269;50.838;12.094;2023-09-07T09:00:21;27.60;30.60
18287;DHT22;9269;50.838;12.094;2023-09-07T09:02:51;27.60;31.00
18287;DHT22;9269;50.838;12.094;2023-09-07T09:05:23;27.80;30.70
18287;DHT22;9269;50.838;12.094;2023-09-07T09:08:01;27.80;30.40
18287;DHT22;9269;50.838;12.094;2023-09-07T09:10:32;28.00;30.40
18287;DHT22;9269;50.838;12.094;2023-09-07T09:13:01;28.00;30.60
18287;DHT22;9269;50.838;12.094;2023-09-07T09:15:31;28.30;30.10
18287;DHT22;9269;50.838;12.094;2023-09-07T09:18:09;28.30;29.90
18287;DHT22;9269;50.838;12.094;2023-09-07T09:20:39;28.50;29.90
18287;DHT22;9269;50.838;12.094;2023-09-07T09:23:07;28.60;29.80
18287;DHT22;9269;50.838;12.094;2023-09-07T09:25:40;28.70;29.50
18287;DHT22;9269;50.838;12.094;2023-09-07T09:28:26;28.80;29.50
18287;DHT22;9269;50.838;12.094;2023-09-07T09:30:55;29.00;29.70
18287;DHT22;9269;50.838;12.094;2023-09-07T09:33:23;29.00;29.60
18287;DHT22;9269;50.838;12.094;2023-09-07T09:35:53;29.10;29.10
18287;DHT22;9269;50.838;12.094;2023-09-07T09:38:22;29.40;28.10
18287;DHT22;9269;50.838;12.094;2023-09-07T09:40:56;29.40;27.30
18287;DHT22;9269;50.838;12.094;2023-09-07T09:43:26;29.40;28.50
18287;DHT22;9269;50.838;12.094;2023-09-07T09:46:14;29.70;27.40
18287;DHT22;9269;50.838;12.094;2023-09-07T09:48:44;29.80;27.60
18287;DHT22;9269;50.838;12.094;2023-09-07T09:51:30;29.90;27.40
18287;DHT22;9269;50.838;12.094;2023-09-07T09:54:12;30.00;25.80
18287;DHT22;9269;50.838;12.094;2023-09-07T09:56:46;30.10;26.40
18287;DHT22;9269;50.838;12.094;2023-09-07T09:59:15;30.30;24.30
18287;DHT22;9269;50.838;12.094;2023-09-07T10:01:47;30.20;24.10
18287;DHT22;9269;50.838;12.094;2023-09-07T10:04:18;30.30;24.50
18287;DHT22;9269;50.838;12.094;2023-09-07T10:06:54;30.40;24.70
18287;DHT22;9269;50.838;12.094;2023-09-07T10:09:24;30.40;24.30
18287;DHT22;9269;50.838;12.094;2023-09-07T10:11:59;30.50;23.90
18287;DHT22;9269;50.838;12.094;2023-09-07T10:14:37;30.60;22.50
18287;DHT22;9269;50.838;12.094;2023-09-07T10:17:07;30.70;22.90
18287;DHT22;9269;50.838;12.094;2023-09-07T10:19:37;30.60;22.40
18287;DHT22;9269;50.838;12.094;2023-09-07T10:22:20;30.70;22.10
18287;DHT22;9269;50.838;12.094;2023-09-07T10:24:57;30.80;21.30
18287;DHT22;9269;50.838;12.094;2023-09-07T10:27:36;30.80;21.30
18287;DHT22;9269;50.838;12.094;2023-09-07T10:30:10;30.80;21.40
18287;DHT22;9269;50.838;12.094;2023-09-07T10:32:40;30.90;22.30
18287;DHT22;9269;50.838;12.094;2023-09-07T10:35:15;31.00;22.10
18287;DHT22;9269;50.838;12.094;2023-09-07T10:37:45;31.20;21.70
18287;DHT22;9269;50.838;12.094;2023-09-07T10:40:19;31.20;21.60
18287;DHT22;9269;50.838;12.094;2023-09-07T10:43:00;31.30;20.50
18287;DHT22;9269;50.838;12.094;2023-09-07T10:45:30;31.40;19.20
18287;DHT22;9269;50.838;12.094;2023-09-07T10:48:00;31.30;20.00
18287;DHT22;9269;50.838;12.094;2023-09-07T10:50:28;31.40;21.00
18287;DHT22;9269;50.838;12.094;2023-09-07T10:52:57;31.50;20.90
18287;DHT22;9269;50.838;12.094;2023-09-07T10:55:25;31.60;20.10
18287;DHT22;9269;50.838;12.094;2023-09-07T10:57:56;31.80;20.10
18287;DHT22;9269;50.838;12.094;2023-09-07T11:00:25;31.90;18.90
18287;DHT22;9269;50.838;12.094;2023-09-07T11:02:54;32.00;18.70
18287;DHT22;9269;50.838;12.094;2023-09-07T11:05:22;32.00;19.90
18287;DHT22;9269;50.838;12.094;2023-09-07T11:07:52;32.10;19.60
18287;DHT22;9269;50.838;12.094;2023-09-07T11:10:22;32.30;19.30
18287;DHT22;9269;50.838;12.094;2023-09-07T11:12:51;32.30;19.10
18287;DHT22;9269;50.838;12.094;2023-09-07T11:15:22;32.40;18.10
18287;DHT22;9269;50.838;12.094;2023-09-07T11:17:51;32.40;17.90
18287;DHT22;9269;50.838;12.094;2023-09-07T11:20:21;32.30;18.00
18287;DHT22;9269;50.838;12.094;2023-09-07T11:22:50;32.30;18.10
18287;DHT22;9269;50.838;12.094;2023-09-07T11:25:36;32.60;18.30
18287;DHT22;9269;50.838;12.094;2023-09-07T11:28:06;32.60;17.90
18287;DHT22;9269;50.838;12.094;2023-09-07T11:30:36;32.60;17.80
18287;DHT22;9269;50.838;12.094;2023-09-07T11:33:07;32.60;17.30
18287;DHT22;9269;50.838;12.094;2023-09-07T11:35:36;32.70;18.00
18287;DHT22;9269;50.838;12.094;2023-09-07T11:38:29;32.70;18.00
18287;DHT22;9269;50.838;12.094;2023-09-07T11:40:57;32.70;17.30
18287;DHT22;9269;50.838;12.094;2023-09-07T11:43:26;32.60;17.60
18287;DHT22;9269;50.838;12.094;2023-09-07T11:45:56;32.70;17.90
18287;DHT22;9269;50.838;12.094;2023-09-07T11:48:25;32.70;17.90
18287;DHT22;9269;50.838;12.094;2023-09-07T11:50:56;32.80;18.10
18287;DHT22;9269;50.838;12.094;2023-09-07T11:53:25;32.90;17.70
18287;DHT22;9269;50.838;12.094;2023-09-07T11:55:55;32.90;17.40
18287;DHT22;9269;50.838;12.094;2023-09-07T11:58:24;32.90;17.10
18287;DHT22;9269;50.838;12.094;2023-09-07T12:00:59;33.00;17.20
18287;DHT22;9269;50.838;12.094;2023-09-07T12:03:27;33.00;17.90
18287;DHT22;9269;50.838;12.094;2023-09-07T12:05:58;33.20;17.70
18287;DHT22;9269;50.838;12.094;2023-09-07T12:08:27;33.30;15.80
18287;DHT22;9269;50.838;12.094;2023-09-07T12:10:56;33.30;15.50
18287;DHT22;9269;50.838;12.094;2023-09-07T12:13:25;33.30;15.00
18287;DHT22;9269;50.838;12.094;2023-09-07T12:15:54;33.30;14.30
18287;DHT22;9269;50.838;12.094;2023-09-07T12:18:25;33.30;14.70
18287;DHT22;9269;50.838;12.094;2023-09-07T12:20:53;33.40;14.10
18287;DHT22;9269;50.838;12.094;2023-09-07T12:23:23;33.50;14.00
18287;DHT22;9269;50.838;12.094;2023-09-07T12:25:52;33.50;13.70
18287;DHT22;9269;50.838;12.094;2023-09-07T12:28:22;33.50;14.50
18287;DHT22;9269;50.838;12.094;2023-09-07T12:30:51;33.60;14.90
18287;DHT22;9269;50.838;12.094;2023-09-07T12:33:20;33.60;14.70
18287;DHT22;9269;50.838;12.094;2023-09-07T12:35:51;33.60;14.20
18287;DHT22;9269;50.838;12.094;2023-09-07T12:38:20;33.60;14.20
18287;DHT22;9269;50.838;12.094;2023-09-07T12:40:52;33.70;14.40
18287;DHT22;9269;50.838;12.094;2023-09-07T12:43:21;33.60;14.30
18287;DHT22;9269;50.838;12.094;2023-09-07T12:45:52;33.70;13.90
18287;DHT22;9269;50.838;12.094;2023-09-07T12:48:22;33.60;12.40
18287;DHT22;9269;50.838;12.094;2023-09-07T12:50:52;33.60;12.80
18287;DHT22;9269;50.838;12.094;2023-09-07T12:53:21;33.50;12.40
18287;DHT22;9269;50.838;12.094;2023-09-07T12:55:52;33.50;12.80
18287;DHT22;9269;50.838;12.094;2023-09-07T12:58:21;33.60;12.90
18287;DHT22;9269;50.838;12.094;2023-09-07T13:00:50;33.70;13.60
18287;DHT22;9269;50.838;12.094;2023-09-07T13:03:19;33.80;13.50
18287;DHT22;9269;50.838;12.094;2023-09-07T13:05:49;33.70;12.90
18287;DHT22;9269;50.838;12.094;2023-09-07T13:08:19;33.80;12.60
18287;DHT22;9269;50.838;12.094;2023-09-07T13:10:49;33.90;12.40
18287;DHT22;9269;50.838;12.094;2023-09-07T13:13:19;33.90;12.50
18287;DHT22;9269;50.838;12.094;2023-09-07T13:15:49;33.90;12.60
18287;DHT22;9269;50.838;12.094;2023-09-07T13:18:18;33.90;12.90
18287;DHT22;9269;50.838;12.094;2023-09-07T13:20:48;33.90;12.60
18287;DHT22;9269;50.838;12.094;2023-09-07T13:23:20;33.90;12.20
18287;DHT22;9269;50.838;12.094;2023-09-07T13:25:49;33.90;12.70
18287;DHT22;9269;50.838;12.094;2023-09-07T13:28:17;33.90;12.10
18287;DHT22;9269;50.838;12.094;2023-09-07T13:30:46;33.90;11.80
18287;DHT22;9269;50.838;12.094;2023-09-07T13:33:15;33.80;12.30
18287;DHT22;9269;50.838;12.094;2023-09-07T13:35:44;33.90;12.80
18287;DHT22;9269;50.838;12.094;2023-09-07T13:38:13;33.90;12.40
18287;DHT22;9269;50.838;12.094;2023-09-07T13:40:43;33.90;12.20
18287;DHT22;9269;50.838;12.094;2023-09-07T13:43:11;34.00;11.80
18287;DHT22;9269;50.838;12.094;2023-09-07T13:45:40;33.90;12.00
18287;DHT22;9269;50.838;12.094;2023-09-07T13:48:08;33.90;11.00
18287;DHT22;9269;50.838;12.094;2023-09-07T13:50:37;33.90;10.70
18287;DHT22;9269;50.838;12.094;2023-09-07T13:53:06;33.80;10.60
18287;DHT22;9269;50.838;12.094;2023-09-07T13:55:35;33.80;11.30
18287;DHT22;9269;50.838;12.094;2023-09-07T13:58:08;33.80;10.30
18287;DHT22;9269;50.838;12.094;2023-09-07T14:00:37;33.70;10.40
18287;DHT22;9269;50.838;12.094;2023-09-07T14:03:06;33.70;11.00
18287;DHT22;9269;50.838;12.094;2023-09-07T14:05:34;33.70;11.10
18287;DHT22;9269;50.838;12.094;2023-09-07T14:08:04;33.70;10.80
18287;DHT22;9269;50.838;12.094;2023-09-07T14:10:32;33.80;10.10
18287;DHT22;9269;50.838;12.094;2023-09-07T14:13:01;33.70;9.80
18287;DHT22;9269;50.838;12.094;2023-09-07T14:15:32;33.70;9.60
18287;DHT22;9269;50.838;12.094;2023-09-07T14:18:00;33.70;9.70
18287;DHT22;9269;50.838;12.094;2023-09-07T14:20:30;33.60;9.70
18287;DHT22;9269;50.838;12.094;2023-09-07T14:22:59;33.60;10.10
18287;DHT22;9269;50.838;12.094;2023-09-07T14:25:32;33.50;10.00
18287;DHT22;9269;50.838;12.094;2023-09-07T14:28:02;33.50;10.00
18287;DHT22;9269;50.838;12.094;2023-09-07T14:30:32;33.40;10.20
18287;DHT22;9269;50.838;12.094;2023-09-07T14:33:00;33.50;10.30
18287;DHT22;9269;50.838;12.094;2023-09-07T14:35:28;33.40;10.20
18287;DHT22;9269;50.838;12.094;2023-09-07T14:37:58;33.50;10.00
18287;DHT22;9269;50.838;12.094;2023-09-07T14:40:28;33.40;10.00
18287;DHT22;9269;50.838;12.094;2023-09-07T14:42:57;33.30;9.30
18287;DHT22;9269;50.838;12.094;2023-09-07T14:45:25;33.30;9.40
18287;DHT22;9269;50.838;12.094;2023-09-07T14:47:55;33.30;10.10
18287;DHT22;9269;50.838;12.094;2023-09-07T14:50:24;33.30;9.50
18287;DHT22;9269;50.838;12.094;2023-09-07T14:52:52;33.30;9.60
18287;DHT22;9269;50.838;12.094;2023-09-07T14:55:21;33.30;9.60
18287;DHT22;9269;50.838;12.094;2023-09-07T14:57:50;33.30;9.60
18287;DHT22;9269;50.838;12.094;2023-09-07T15:00:19;33.30;9.50
18287;DHT22;9269;50.838;12.094;2023-09-07T15:02:49;33.20;9.70
18287;DHT22;9269;50.838;12.094;2023-09-07T15:05:21;33.20;9.80
18287;DHT22;9269;50.838;12.094;2023-09-07T15:07:51;33.20;9.40
18287;DHT22;9269;50.838;12.094;2023-09-07T15:10:20;33.20;9.20
18287;DHT22;9269;50.838;12.094;2023-09-07T15:12:49;33.00;9.30
18287;DHT22;9269;50.838;12.094;2023-09-07T15:15:19;33.00;9.80
18287;DHT22;9269;50.838;12.094;2023-09-07T15:17:49;33.00;9.80
18287;DHT22;9269;50.838;12.094;2023-09-07T15:20:17;32.90;9.40
18287;DHT22;9269;50.838;12.094;2023-09-07T15:22:48;32.80;9.70
18287;DHT22;9269;50.838;12.094;2023-09-07T15:25:16;32.90;9.70
18287;DHT22;9269;50.838;12.094;2023-09-07T15:27:45;32.80;9.70
18287;DHT22;9269;50.838;12.094;2023-09-07T15:30:14;32.80;9.60
18287;DHT22;9269;50.838;12.094;2023-09-07T15:32:43;32.70;10.00
18287;DHT22;9269;50.838;12.094;2023-09-07T15:35:12;32.60;9.80
18287;DHT22;9269;50.838;12.094;2023-09-07T15:37:41;32.60;10.30
18287;DHT22;9269;50.838;12.094;2023-09-07T15:40:14;32.50;9.80
18287;DHT22;9269;50.838;12.094;2023-09-07T15:42:42;32.40;10.40
18287;DHT22;9269;50.838;12.094;2023-09-07T15:45:11;32.40;10.90
18287;DHT22;9269;50.838;12.094;2023-09-07T15:47:41;32.40;10.40
18287;DHT22;9269;50.838;12.094;2023-09-07T15:50:10;32.30;9.90
18287;DHT22;9269;50.838;12.094;2023-09-07T15:52:44;32.20;9.80
18287;DHT22;9269;50.838;12.094;2023-09-07T15:55:16;32.10;10.20